Hovedside
METAR-TAF:

METAR-TAF

Lufthavner :

København, Danmark

Københavns lufthavn

breddegrad: 55-37N, lengdegrad: 012-39E, høyde over havet: 5 m

Gjeldene værobservasjon

Denne rapporten ble laget for 34 minutter siden, klokken 13:20 UTC
Vind 9 kt fra Øst-nordøst, skiftende mellom Nord-nordøst og Øst
Temperatur -1°C
Luftfuktighet 46%
Trykk 1035 hPa
Sikt 10 km eller mer
Få skyer i en høyde av 3900 ft

METAR: EKCH 251320Z 06009KT 030V100 9999 FEW039 M01/M11 Q1035 NOSIG

Tid: 14:54 (13:54 UTC)

Varsel

Denne rapporten ble laget for 2 timer og 51 minutter siden, klokken 11:03 UTC
Varsel gyldig fra 25. klokken 12 UTC til 26. klokken 12 UTC
Vind 16 kt fra Nordøst
Sikt 10 km eller mer
Spredte skyer i en høyde av 3000 ft
Midlertidig
fra 25. klokken 18 UTC til 25. klokken 24 UTC
Vind 18 kt fra Nordøst med vindkast opp mot 28 kt

TAF: EKCH 251103Z 2512/2612 04016KT 9999 SCT030 TEMPO 2518/2524 04018G28KT

Værobservasjoner og værvarsel for over 4000 flyplasser (METAR- og TAF-rapporter).

Tilgjengelige stasjoner er representert av de røde og gule prikkene på kartet.

Hold musepekeren over prikken for å se navnet på stasjonen.

Klikk så for å se værobservasjoner og -varsler.

For å forandre kartet kan du klikke på den grønne knappen med svart kryss for å zoome inn, på den grønne knappen med strek for å zoome ut, eller på de grønne pilene for å se tilstøtende kart.


METAR-TAF: